Time;durP1;ratioP1;P1;durP2;ratioP2;P2;SDS_P1;SDS_P2;PMS_P1;PMS_P2;Temp;Humidity;BMP_temperature;BMP_pressure;BME280_temperature;BME280_humidity;BME280_pressure;Samples;Min_cycle;Max_cycle;Signal;HPM_P1;HPM_P2
2020/12/14 00:00:27;;;;;;;40.80;25.93;;;2.70;99.90;;;;;;4967284;28;20942;-76
2020/12/14 00:02:54;;;;;;;41.23;25.50;;;2.70;99.90;;;;;;4980026;28;20513;-76
2020/12/14 00:05:21;;;;;;;39.77;24.87;;;2.70;99.90;;;;;;4977812;28;20473;-76
2020/12/14 00:07:48;;;;;;;37.97;24.10;;;2.70;99.90;;;;;;4977215;28;20606;-76
2020/12/14 00:10:14;;;;;;;42.30;26.20;;;2.70;99.90;;;;;;4971230;28;20477;-76
2020/12/14 00:12:40;;;;;;;38.50;25.67;;;2.60;99.90;;;;;;4972533;28;20937;-76
2020/12/14 00:15:07;;;;;;;47.60;26.03;;;2.50;99.90;;;;;;4983196;28;20505;-75
2020/12/14 00:17:34;;;;;;;47.63;26.80;;;2.40;99.90;;;;;;4967925;28;20515;-76
2020/12/14 00:20:01;;;;;;;43.90;24.43;;;2.40;99.90;;;;;;4973342;28;20461;-76
2020/12/14 00:22:30;;;;;;;43.80;25.73;;;2.50;99.90;;;;;;4976722;28;20454;-76
2020/12/14 00:24:57;;;;;;;46.27;27.20;;;2.40;99.90;;;;;;4975938;28;20482;-76
2020/12/14 00:27:24;;;;;;;47.93;27.30;;;2.50;99.90;;;;;;4978173;28;20455;-76
2020/12/14 00:29:50;;;;;;;46.87;26.67;;;2.40;99.90;;;;;;4971274;28;21361;-75
2020/12/14 00:32:17;;;;;;;44.43;26.87;;;2.40;99.90;;;;;;4973597;28;20517;-77
2020/12/14 00:34:43;;;;;;;44.40;26.07;;;2.50;99.90;;;;;;4971907;28;20603;-76
2020/12/14 00:37:10;;;;;;;49.80;27.70;;;2.40;99.90;;;;;;4975977;28;20454;-75
2020/12/14 00:39:37;;;;;;;42.37;25.67;;;2.40;99.90;;;;;;4976215;28;21013;-75
2020/12/14 00:42:04;;;;;;;44.70;24.90;;;2.40;99.90;;;;;;4984181;28;20447;-76
2020/12/14 00:44:31;;;;;;;50.43;26.10;;;2.40;99.90;;;;;;4968337;28;20526;-76
2020/12/14 00:46:57;;;;;;;39.70;25.20;;;2.40;99.90;;;;;;4963595;28;20528;-76
2020/12/14 00:49:24;;;;;;;49.27;27.40;;;2.40;99.90;;;;;;4978697;28;20516;-76
2020/12/14 00:51:50;;;;;;;44.13;25.90;;;2.40;99.90;;;;;;4978470;28;20699;-75
2020/12/14 00:54:17;;;;;;;42.33;26.47;;;2.40;99.90;;;;;;4977828;28;20451;-76
2020/12/14 00:56:44;;;;;;;47.50;26.50;;;2.40;99.90;;;;;;4967910;28;20472;-76
2020/12/14 00:59:13;;;;;;;53.40;26.50;;;2.50;99.90;;;;;;4980090;28;20805;-76
2020/12/14 01:01:40;;;;;;;51.80;26.53;;;2.50;99.90;;;;;;4972530;28;20457;-76
2020/12/14 01:04:06;;;;;;;48.20;27.40;;;2.60;99.90;;;;;;4986868;28;20961;-76
2020/12/14 01:06:35;;;;;;;43.97;25.83;;;2.60;99.90;;;;;;4975809;28;20502;-76
2020/12/14 01:09:01;;;;;;;53.13;26.87;;;2.60;99.90;;;;;;4977364;28;20469;-76
2020/12/14 01:11:28;;;;;;;50.83;26.50;;;2.60;99.90;;;;;;4972900;28;20474;-76
2020/12/14 01:13:56;;;;;;;54.93;27.10;;;2.60;99.90;;;;;;4982072;28;20449;-76
2020/12/14 01:16:22;;;;;;;54.83;24.70;;;2.70;99.90;;;;;;4973959;28;20950;-76
2020/12/14 01:18:49;;;;;;;63.20;24.90;;;2.70;99.90;;;;;;4975907;28;20460;-76
2020/12/14 01:21:23;;;;;;;75.67;25.13;;;2.70;99.90;;;;;;4972840;28;20484;-76
2020/12/14 01:23:50;;;;;;;48.50;24.53;;;2.70;99.90;;;;;;4978596;28;20454;-76
2020/12/14 01:26:17;;;;;;;47.80;24.33;;;2.70;99.90;;;;;;4976487;28;20514;-76
2020/12/14 01:28:44;;;;;;;48.57;23.53;;;2.70;99.90;;;;;;4978459;28;20455;-76
2020/12/14 01:31:11;;;;;;;49.43;23.90;;;2.70;99.90;;;;;;4970118;28;20531;-76
2020/12/14 01:33:37;;;;;;;37.23;21.20;;;2.70;99.90;;;;;;4974128;28;20479;-76
2020/12/14 01:36:04;;;;;;;43.60;21.80;;;2.70;99.90;;;;;;4971238;28;20457;-76
2020/12/14 01:38:30;;;;;;;47.97;24.53;;;2.70;99.90;;;;;;4980785;28;20452;-75
2020/12/14 01:40:57;;;;;;;45.20;20.67;;;2.70;99.90;;;;;;4974605;28;20448;-75
2020/12/14 01:43:26;;;;;;;37.60;20.40;;;2.60;99.90;;;;;;4976786;28;20464;-75
2020/12/14 01:45:53;;;;;;;38.53;20.40;;;2.60;99.90;;;;;;4972388;28;21030;-75
2020/12/14 01:48:24;;;;;;;31.60;20.33;;;2.60;99.90;;;;;;4973691;28;20513;-75
2020/12/14 01:50:51;;;;;;;31.30;20.33;;;2.50;99.90;;;;;;4970592;28;20478;-76
2020/12/14 01:53:18;;;;;;;29.63;19.90;;;2.50;99.90;;;;;;4972458;28;20823;-76
2020/12/14 01:55:47;;;;;;;32.80;19.43;;;2.50;99.90;;;;;;4975709;28;20456;-76
2020/12/14 01:58:13;;;;;;;32.30;19.60;;;2.40;99.90;;;;;;4976700;28;20449;-76
2020/12/14 02:00:40;;;;;;;25.50;18.67;;;2.40;99.90;;;;;;4972883;28;20666;-77
2020/12/14 02:03:06;;;;;;;29.67;19.53;;;2.40;99.90;;;;;;4970746;28;21071;-77
2020/12/14 02:05:34;;;;;;;31.97;20.00;;;2.40;99.90;;;;;;4979370;28;20550;-76
2020/12/14 02:08:00;;;;;;;25.67;18.30;;;2.40;99.90;;;;;;4978491;28;20566;-76
2020/12/14 02:10:27;;;;;;;33.13;20.23;;;2.40;99.90;;;;;;4976428;28;20586;-76
2020/12/14 02:12:53;;;;;;;45.73;19.50;;;2.40;99.90;;;;;;4979225;28;20451;-75
2020/12/14 02:15:20;;;;;;;33.57;19.77;;;2.40;99.90;;;;;;4992564;28;20451;-76
2020/12/14 02:17:46;;;;;;;29.87;19.50;;;2.40;99.90;;;;;;4977061;28;20900;-76
2020/12/14 02:20:12;;;;;;;29.53;18.30;;;2.40;99.90;;;;;;4993594;28;20455;-76
2020/12/14 02:22:40;;;;;;;30.30;19.33;;;2.40;99.90;;;;;;4967318;28;20488;-76
2020/12/14 02:25:08;;;;;;;29.70;19.00;;;2.40;99.90;;;;;;4982247;28;20468;-76
2020/12/14 02:27:36;;;;;;;32.87;19.00;;;2.50;99.90;;;;;;4977982;28;20500;-76
2020/12/14 02:30:05;;;;;;;38.03;18.10;;;2.40;99.90;;;;;;4973394;28;20509;-75
2020/12/14 02:32:31;;;;;;;46.13;19.93;;;2.40;99.90;;;;;;4977825;28;20447;-75
2020/12/14 02:34:58;;;;;;;37.30;19.20;;;2.20;99.90;;;;;;4977680;28;20921;-76
2020/12/14 02:37:26;;;;;;;70.37;19.63;;;2.20;99.90;;;;;;4978685;28;20893;-76
2020/12/14 02:39:54;;;;;;;65.07;19.13;;;2.10;99.90;;;;;;4982478;28;20440;-76
2020/12/14 02:42:22;;;;;;;87.83;17.27;;;2.00;99.90;;;;;;4983702;28;20458;-76
2020/12/14 02:44:50;;;;;;;37.73;17.30;;;1.80;99.90;;;;;;4973767;28;20481;-76
2020/12/14 02:47:17;;;;;;;48.23;18.23;;;1.90;99.90;;;;;;4965027;28;20806;-75
2020/12/14 02:49:44;;;;;;;38.60;16.90;;;1.80;99.90;;;;;;4968826;28;20450;-75
2020/12/14 02:52:14;;;;;;;37.80;18.27;;;1.90;99.90;;;;;;4978598;28;20468;-76
2020/12/14 02:54:42;;;;;;;49.17;16.80;;;1.80;99.90;;;;;;4965997;28;20469;-75
2020/12/14 02:57:09;;;;;;;62.07;23.70;;;1.80;99.90;;;;;;4961716;28;20518;-76
2020/12/14 02:59:36;;;;;;;61.37;19.50;;;1.80;99.90;;;;;;4967428;28;20506;-76
2020/12/14 03:02:03;;;;;;;47.67;17.40;;;1.80;99.90;;;;;;4971548;28;20496;-75
2020/12/14 03:04:33;;;;;;;81.00;17.77;;;1.80;99.90;;;;;;4969244;28;20455;-76
2020/12/14 03:06:59;;;;;;;65.90;18.97;;;1.80;99.90;;;;;;4973724;28;20516;-76
2020/12/14 03:09:26;;;;;;;89.03;20.90;;;1.80;99.90;;;;;;4972991;28;20458;-76
2020/12/14 03:11:53;;;;;;;70.27;19.10;;;1.80;99.90;;;;;;4981821;28;20555;-77
2020/12/14 03:14:19;;;;;;;69.50;19.40;;;1.80;99.90;;;;;;4977394;28;20443;-76
2020/12/14 03:16:47;;;;;;;76.50;20.43;;;1.80;99.90;;;;;;4970534;28;20811;-75
2020/12/14 03:19:14;;;;;;;58.30;19.53;;;1.80;99.90;;;;;;4971658;28;20505;-75
2020/12/14 03:21:41;;;;;;;41.27;17.30;;;1.80;99.90;;;;;;4979849;28;20455;-76
2020/12/14 03:24:07;;;;;;;62.50;18.40;;;1.70;99.90;;;;;;4962494;28;20457;-76
2020/12/14 03:26:34;;;;;;;59.07;17.90;;;1.70;99.90;;;;;;4970837;28;20483;-76
2020/12/14 03:29:01;;;;;;;60.77;18.17;;;1.70;99.90;;;;;;4977811;28;20531;-76
2020/12/14 03:31:28;;;;;;;51.10;20.03;;;1.80;99.90;;;;;;4971689;28;20475;-76
2020/12/14 03:33:56;;;;;;;59.00;18.63;;;1.80;99.90;;;;;;4980270;28;20490;-76
2020/12/14 03:36:23;;;;;;;55.73;18.27;;;1.80;99.90;;;;;;4971484;28;20465;-76
2020/12/14 03:38:50;;;;;;;69.37;19.37;;;1.80;99.90;;;;;;4973272;28;20487;-76
2020/12/14 03:41:17;;;;;;;44.63;16.97;;;1.70;99.90;;;;;;4963200;28;20450;-76
2020/12/14 03:43:43;;;;;;;30.83;16.77;;;1.80;99.90;;;;;;4970084;28;20457;-76
2020/12/14 03:46:15;;;;;;;33.50;18.27;;;1.80;99.90;;;;;;4970684;28;20521;-75
2020/12/14 03:48:41;;;;;;;30.93;17.23;;;1.90;99.90;;;;;;4965809;28;20459;-76
2020/12/14 03:51:09;;;;;;;27.23;18.57;;;1.80;99.90;;;;;;4986017;28;20470;-75
2020/12/14 03:53:36;;;;;;;28.03;18.00;;;1.90;99.90;;;;;;4978617;28;20513;-77
2020/12/14 03:56:03;;;;;;;27.30;16.53;;;1.90;99.90;;;;;;4977137;28;20466;-75
2020/12/14 03:58:29;;;;;;;30.30;18.80;;;1.90;99.90;;;;;;4963278;28;20474;-75
2020/12/14 04:00:56;;;;;;;27.90;18.30;;;2.00;99.90;;;;;;4976840;28;20910;-76
2020/12/14 04:03:23;;;;;;;29.33;18.37;;;2.10;99.90;;;;;;4972221;28;20447;-75
2020/12/14 04:05:49;;;;;;;30.70;18.60;;;2.20;99.90;;;;;;4972766;28;20459;-76
2020/12/14 04:08:19;;;;;;;27.80;17.43;;;2.20;99.90;;;;;;4977417;28;20453;-76
2020/12/14 04:10:46;;;;;;;28.07;18.20;;;2.30;99.90;;;;;;4968281;28;21048;-76
2020/12/14 04:13:12;;;;;;;28.37;18.03;;;2.40;99.90;;;;;;4970076;28;20444;-77
2020/12/14 04:15:39;;;;;;;28.83;18.90;;;2.40;99.90;;;;;;4972687;28;20460;-76
2020/12/14 04:18:07;;;;;;;29.33;18.00;;;2.60;99.90;;;;;;4976233;28;20476;-75
2020/12/14 04:20:34;;;;;;;27.77;17.77;;;2.60;99.90;;;;;;4963938;28;20867;-75
2020/12/14 04:23:00;;;;;;;23.73;17.00;;;2.70;99.90;;;;;;4968568;28;20522;-75
2020/12/14 04:25:27;;;;;;;26.63;17.70;;;2.70;99.90;;;;;;4966592;28;20972;-75
2020/12/14 04:27:58;;;;;;;24.20;17.30;;;2.70;99.90;;;;;;4970985;28;20447;-73
2020/12/14 04:30:25;;;;;;;27.30;17.83;;;2.80;99.90;;;;;;4967946;28;20919;-73
2020/12/14 04:32:51;;;;;;;25.83;17.87;;;2.90;99.90;;;;;;4961281;28;20850;-73
2020/12/14 04:35:18;;;;;;;23.80;16.87;;;2.90;99.90;;;;;;4962722;28;20895;-74
2020/12/14 04:37:44;;;;;;;22.33;16.33;;;3.00;99.90;;;;;;4967158;28;20988;-74
2020/12/14 04:40:11;;;;;;;25.40;17.13;;;2.90;99.90;;;;;;4966535;28;20479;-74
2020/12/14 04:42:39;;;;;;;24.10;17.03;;;3.00;99.90;;;;;;4969236;28;20870;-74
2020/12/14 04:45:06;;;;;;;22.17;16.20;;;3.00;99.90;;;;;;4968911;28;20473;-74
2020/12/14 04:47:33;;;;;;;22.63;16.60;;;3.00;99.90;;;;;;4974635;28;20494;-74
2020/12/14 04:50:00;;;;;;;22.83;17.07;;;3.10;99.90;;;;;;4973700;28;21284;-74
2020/12/14 04:52:28;;;;;;;21.80;16.40;;;3.10;99.90;;;;;;4964724;28;20486;-73
2020/12/14 04:54:56;;;;;;;21.07;16.40;;;3.10;99.90;;;;;;4978180;28;20537;-75
2020/12/14 04:57:22;;;;;;;20.37;15.33;;;3.10;99.90;;;;;;4979467;28;20541;-74
2020/12/14 04:59:51;;;;;;;22.13;15.70;;;3.00;99.90;;;;;;4967341;28;20512;-74
2020/12/14 05:02:18;;;;;;;19.10;14.93;;;3.10;99.90;;;;;;4968041;28;20498;-74
2020/12/14 05:04:45;;;;;;;21.30;16.23;;;3.10;99.90;;;;;;4973970;28;20479;-74
2020/12/14 05:07:12;;;;;;;21.27;16.10;;;3.10;99.90;;;;;;4970761;28;20504;-74
2020/12/14 05:09:40;;;;;;;24.30;16.07;;;3.20;99.90;;;;;;4978766;28;20556;-74
2020/12/14 05:12:18;;;;;;;19.53;14.53;;;3.20;99.90;;;;;;4975891;28;20564;-75
2020/12/14 05:14:48;;;;;;;18.23;15.00;;;3.30;99.90;;;;;;4968546;28;20487;-74
2020/12/14 05:17:27;;;;;;;23.20;16.00;;;3.40;99.90;;;;;;4971611;28;20882;-74
2020/12/14 05:19:54;;;;;;;17.07;13.53;;;3.40;99.90;;;;;;4965949;28;20551;-74
2020/12/14 05:22:20;;;;;;;17.50;13.70;;;3.30;99.90;;;;;;4976824;28;20475;-74
2020/12/14 05:24:50;;;;;;;19.03;15.03;;;3.40;99.90;;;;;;4969922;28;20483;-74
2020/12/14 05:27:33;;;;;;;18.47;14.53;;;3.30;99.90;;;;;;4966448;28;20450;-74
2020/12/14 05:29:59;;;;;;;20.83;15.77;;;3.40;99.90;;;;;;4967563;28;20467;-74
2020/12/14 05:32:27;;;;;;;16.73;14.17;;;3.40;99.90;;;;;;4973495;28;20562;-73
2020/12/14 05:34:54;;;;;;;19.93;15.60;;;3.50;99.90;;;;;;4961925;28;20492;-74
2020/12/14 05:37:20;;;;;;;23.00;16.30;;;3.50;99.90;;;;;;4969928;28;20458;-73
2020/12/14 05:39:49;;;;;;;20.17;14.87;;;3.60;99.90;;;;;;4963544;28;20459;-73
2020/12/14 05:42:23;;;;;;;19.10;14.00;;;3.60;99.90;;;;;;4970748;28;20550;-74
2020/12/14 05:44:50;;;;;;;19.43;14.60;;;3.70;99.90;;;;;;4977842;28;20487;-74
2020/12/14 05:47:24;;;;;;;19.23;14.97;;;3.70;99.90;;;;;;4973159;28;20461;-74
2020/12/14 05:49:52;;;;;;;18.17;13.97;;;3.70;99.90;;;;;;4978514;28;20451;-75
2020/12/14 05:52:23;;;;;;;18.57;14.80;;;3.70;99.90;;;;;;4967154;28;20479;-74
2020/12/14 05:54:54;;;;;;;19.10;14.47;;;3.70;99.90;;;;;;4971622;28;20474;-73
2020/12/14 05:57:29;;;;;;;17.97;14.90;;;3.70;99.90;;;;;;4969701;28;20491;-74
2020/12/14 06:00:04;;;;;;;19.60;15.30;;;3.70;99.90;;;;;;4979251;28;20448;-74
2020/12/14 06:02:31;;;;;;;17.07;13.80;;;3.70;99.90;;;;;;4961327;28;20456;-74
2020/12/14 06:05:02;;;;;;;19.70;15.47;;;3.80;99.90;;;;;;4977505;28;20523;-74
2020/12/14 06:07:30;;;;;;;19.13;14.47;;;3.90;99.90;;;;;;4969690;28;20467;-74
2020/12/14 06:10:11;;;;;;;19.03;15.40;;;3.90;99.90;;;;;;4974802;28;20547;-74
2020/12/14 06:12:41;;;;;;;19.67;16.40;;;3.90;99.90;;;;;;4970513;28;20464;-74
2020/12/14 06:15:09;;;;;;;18.47;15.23;;;3.90;99.90;;;;;;4966210;28;20446;-73
2020/12/14 06:17:36;;;;;;;22.00;17.70;;;4.00;99.90;;;;;;4963640;28;20493;-73
2020/12/14 06:20:10;;;;;;;19.23;15.47;;;4.10;99.90;;;;;;4970781;28;20459;-75
2020/12/14 06:22:40;;;;;;;20.40;15.80;;;4.10;99.90;;;;;;4972453;28;20511;-74
2020/12/14 06:25:07;;;;;;;19.40;16.20;;;4.20;99.90;;;;;;4978861;28;20499;-74
2020/12/14 06:27:33;;;;;;;18.53;15.33;;;4.20;99.90;;;;;;4966813;28;20495;-74
2020/12/14 06:30:00;;;;;;;19.47;15.93;;;4.30;99.90;;;;;;4972096;28;20487;-73
2020/12/14 06:32:38;;;;;;;20.30;15.57;;;4.30;99.90;;;;;;4966682;28;20534;-74
2020/12/14 06:35:07;;;;;;;17.20;14.80;;;4.40;99.10;;;;;;4968581;28;20823;-74
2020/12/14 06:37:48;;;;;;;18.43;15.57;;;4.40;99.20;;;;;;4967171;28;20468;-74
2020/12/14 06:40:14;;;;;;;17.03;14.83;;;4.50;98.30;;;;;;4970549;28;20992;-75
2020/12/14 06:42:41;;;;;;;17.80;14.87;;;4.50;98.50;;;;;;4975925;28;20470;-74
2020/12/14 06:45:18;;;;;;;21.10;17.07;;;4.50;98.40;;;;;;4961912;28;20514;-74
2020/12/14 06:47:50;;;;;;;16.33;14.37;;;4.60;97.10;;;;;;4965779;28;21192;-74
2020/12/14 06:50:31;;;;;;;19.60;15.40;;;4.70;96.60;;;;;;4967915;28;20458;-74
2020/12/14 06:53:01;;;;;;;15.97;13.40;;;4.70;96.40;;;;;;4972812;28;20515;-74
2020/12/14 06:55:45;;;;;;;16.13;13.83;;;4.80;96.40;;;;;;4975091;28;20964;-75
2020/12/14 06:58:30;;;;;;;14.17;12.67;;;4.80;95.50;;;;;;4977045;28;20490;-74
2020/12/14 07:00:57;;;;;;;17.73;14.13;;;4.80;95.60;;;;;;4965422;28;20501;-74
2020/12/14 07:03:30;;;;;;;16.20;14.50;;;4.80;95.30;;;;;;4967876;28;20885;-73
2020/12/14 07:06:02;;;;;;;17.40;14.13;;;4.80;96.60;;;;;;4973804;28;20451;-75
2020/12/14 07:08:33;;;;;;;15.90;13.77;;;4.80;97.50;;;;;;4971608;28;20546;-74
2020/12/14 07:11:14;;;;;;;17.80;14.70;;;4.80;97.20;;;;;;4970944;28;20475;-74
2020/12/14 07:13:40;;;;;;;16.43;13.90;;;4.70;96.80;;;;;;4974830;28;20530;-75
2020/12/14 07:16:09;;;;;;;18.20;14.67;;;4.70;98.50;;;;;;4972295;28;20458;-74
2020/12/14 07:18:39;;;;;;;19.73;15.40;;;4.80;99.40;;;;;;4970179;28;20503;-75
2020/12/14 07:21:17;;;;;;;18.30;13.90;;;4.60;99.70;;;;;;4966514;28;20503;-74
2020/12/14 07:23:45;;;;;;;17.50;14.73;;;4.70;99.90;;;;;;4966006;28;20444;-74
2020/12/14 07:26:13;;;;;;;21.07;15.63;;;4.60;99.90;;;;;;4963924;28;20451;-74
2020/12/14 07:28:42;;;;;;;20.07;15.53;;;4.60;99.90;;;;;;4973539;28;20468;-74
2020/12/14 07:31:14;;;;;;;19.97;16.50;;;4.60;99.90;;;;;;4961675;28;20553;-74
2020/12/14 07:33:49;;;;;;;19.90;16.27;;;4.70;99.90;;;;;;4963935;28;20941;-74
2020/12/14 07:36:22;;;;;;;18.23;15.37;;;4.80;99.90;;;;;;4969195;28;20488;-73
2020/12/14 07:38:51;;;;;;;18.10;15.70;;;4.80;98.80;;;;;;4972218;28;20455;-74
2020/12/14 07:41:18;;;;;;;19.30;16.43;;;4.80;97.70;;;;;;4977138;28;20459;-74
2020/12/14 07:43:50;;;;;;;17.03;15.23;;;4.80;97.70;;;;;;4972516;28;20460;-74
2020/12/14 07:46:33;;;;;;;19.13;14.70;;;4.80;98.10;;;;;;4962778;28;20503;-75
2020/12/14 07:49:06;;;;;;;24.70;15.80;;;4.90;97.40;;;;;;4978720;28;20466;-75
2020/12/14 07:51:35;;;;;;;18.70;15.33;;;4.90;98.70;;;;;;4972979;28;20484;-75
2020/12/14 07:54:10;;;;;;;18.77;15.03;;;4.90;97.50;;;;;;4966320;28;20455;-75
2020/12/14 07:56:48;;;;;;;17.77;14.90;;;5.00;95.70;;;;;;4968149;28;20543;-74
2020/12/14 07:59:26;;;;;;;17.60;14.73;;;5.10;95.00;;;;;;4964049;28;20488;-74
2020/12/14 08:01:54;;;;;;;17.40;15.10;;;5.20;94.80;;;;;;4972845;28;20444;-79
2020/12/14 08:04:25;;;;;;;16.80;14.13;;;5.20;93.40;;;;;;4983891;28;20459;-78
2020/12/14 08:06:54;;;;;;;17.67;15.00;;;5.20;93.20;;;;;;4969037;28;20453;-78
2020/12/14 08:09:23;;;;;;;18.23;15.90;;;5.30;92.90;;;;;;4971850;28;20466;-77
2020/12/14 08:11:51;;;;;;;15.13;13.37;;;5.40;92.20;;;;;;4981789;28;20468;-78
2020/12/14 08:14:19;;;;;;;16.13;13.93;;;5.40;91.50;;;;;;4971282;28;20470;-77
2020/12/14 08:16:46;;;;;;;15.83;14.13;;;5.40;90.90;;;;;;4969918;28;20457;-78
2020/12/14 08:19:18;;;;;;;16.50;13.97;;;5.50;90.30;;;;;;4973301;28;20940;-77
2020/12/14 08:22:01;;;;;;;14.57;13.07;;;5.70;93.00;;;;;;4976871;28;20999;-78
2020/12/14 08:24:28;;;;;;;15.10;13.00;;;5.80;90.80;;;;;;4962764;28;20446;-77
2020/12/14 08:27:00;;;;;;;13.90;12.50;;;5.80;89.30;;;;;;4973828;28;20449;-79
2020/12/14 08:29:31;;;;;;;13.63;12.23;;;5.90;89.60;;;;;;4972945;28;20453;-78
2020/12/14 08:31:59;;;;;;;13.33;12.03;;;5.80;87.90;;;;;;4966072;28;20476;-78
2020/12/14 08:34:30;;;;;;;14.40;11.80;;;5.80;87.20;;;;;;4971755;28;20519;-79
2020/12/14 08:36:57;;;;;;;13.07;11.77;;;5.80;87.60;;;;;;4971145;28;20895;-78
2020/12/14 08:39:25;;;;;;;16.87;13.40;;;5.80;87.30;;;;;;4971127;28;20449;-77
2020/12/14 08:42:06;;;;;;;14.30;12.90;;;5.80;87.40;;;;;;4974249;28;20456;-78
2020/12/14 08:44:33;;;;;;;13.87;12.43;;;5.80;87.30;;;;;;4967395;28;20491;-77
2020/12/14 08:47:00;;;;;;;14.60;12.10;;;5.90;87.20;;;;;;4974825;28;20504;-78
2020/12/14 08:49:27;;;;;;;14.93;12.50;;;5.90;86.30;;;;;;4975682;28;20452;-78
2020/12/14 08:51:54;;;;;;;17.57;13.33;;;5.80;86.10;;;;;;4969434;28;20477;-77
2020/12/14 08:54:22;;;;;;;13.83;12.40;;;5.90;86.20;;;;;;4972707;28;20455;-77
2020/12/14 08:56:49;;;;;;;13.83;12.43;;;5.90;86.20;;;;;;4968788;28;20460;-79
2020/12/14 08:59:17;;;;;;;15.43;13.80;;;6.00;86.40;;;;;;4979040;28;20441;-79
2020/12/14 09:01:56;;;;;;;12.73;11.53;;;6.10;86.50;;;;;;4969981;28;20456;-77
2020/12/14 09:04:30;;;;;;;14.00;12.60;;;6.10;85.30;;;;;;4970199;28;20441;-77
2020/12/14 09:06:57;;;;;;;16.07;12.50;;;6.10;84.70;;;;;;4973111;28;20452;-77
2020/12/14 09:09:31;;;;;;;14.23;12.73;;;5.90;85.20;;;;;;4979283;28;20463;-78
2020/12/14 09:12:00;;;;;;;13.67;12.20;;;5.90;85.00;;;;;;4986198;28;20485;-79
2020/12/14 09:14:28;;;;;;;14.17;12.77;;;5.90;84.20;;;;;;4975730;28;20559;-77
2020/12/14 09:16:57;;;;;;;14.27;12.73;;;6.00;83.90;;;;;;4983809;28;20494;-77
2020/12/14 09:19:28;;;;;;;14.80;13.27;;;6.00;83.30;;;;;;4964863;28;20448;-77
2020/12/14 09:21:54;;;;;;;12.93;11.60;;;6.00;83.20;;;;;;4975702;28;20974;-80
2020/12/14 09:24:23;;;;;;;16.07;13.00;;;6.10;82.70;;;;;;4980597;28;20507;-77
2020/12/14 09:26:51;;;;;;;13.97;12.57;;;6.10;82.40;;;;;;4986714;28;20480;-78
2020/12/14 09:29:19;;;;;;;12.77;11.47;;;6.10;82.30;;;;;;4987851;28;20456;-78
2020/12/14 09:31:50;;;;;;;13.27;11.23;;;6.10;82.10;;;;;;4983036;28;20465;-79
2020/12/14 09:34:19;;;;;;;15.33;12.10;;;6.10;82.00;;;;;;4989091;28;20491;-79
2020/12/14 09:36:46;;;;;;;14.10;11.83;;;6.10;81.50;;;;;;4984521;28;20450;-78
2020/12/14 09:39:12;;;;;;;12.07;10.77;;;6.10;81.70;;;;;;4968892;28;20547;-78
2020/12/14 09:41:39;;;;;;;11.33;10.13;;;6.20;81.20;;;;;;4978457;28;20449;-80
2020/12/14 09:44:06;;;;;;;12.17;10.87;;;6.40;81.30;;;;;;4990152;28;20540;-80
2020/12/14 09:46:34;;;;;;;11.13;10.03;;;6.30;80.10;;;;;;4982719;28;20457;-82
2020/12/14 09:49:01;;;;;;;11.60;10.50;;;6.10;80.10;;;;;;4985720;28;20454;-84
2020/12/14 09:51:29;;;;;;;12.10;10.80;;;6.00;80.20;;;;;;4972626;28;20474;-80
2020/12/14 09:53:57;;;;;;;13.30;11.10;;;6.00;80.40;;;;;;4975195;28;20508;-80
2020/12/14 09:56:24;;;;;;;13.57;11.03;;;6.00;80.50;;;;;;4982462;28;20464;-80
2020/12/14 09:58:51;;;;;;;12.67;11.47;;;6.10;80.50;;;;;;4993902;28;20484;-80
2020/12/14 10:01:19;;;;;;;11.10;9.93;;;6.20;79.80;;;;;;4991270;28;20451;-81
2020/12/14 10:03:47;;;;;;;13.00;11.60;;;6.30;79.30;;;;;;4979836;28;20446;-81
2020/12/14 10:06:15;;;;;;;12.77;11.47;;;6.40;78.80;;;;;;4987107;28;20485;-80
2020/12/14 10:08:42;;;;;;;11.83;10.63;;;6.50;78.50;;;;;;4980142;28;20449;-81
2020/12/14 10:11:09;;;;;;;11.67;10.47;;;6.50;78.40;;;;;;4979117;28;20532;-81
2020/12/14 10:13:43;;;;;;;10.43;9.57;;;6.60;78.10;;;;;;4981872;28;20918;-81
2020/12/14 10:16:13;;;;;;;11.90;10.70;;;6.60;78.10;;;;;;4982812;28;20483;-82
2020/12/14 10:18:41;;;;;;;11.93;10.73;;;6.60;78.00;;;;;;4972809;28;20470;-80
2020/12/14 10:21:12;;;;;;;11.40;10.30;;;6.60;78.40;;;;;;4979005;28;20448;-80
2020/12/14 10:23:40;;;;;;;11.43;10.33;;;6.60;78.30;;;;;;4986767;28;20477;-81
2020/12/14 10:26:09;;;;;;;9.93;9.03;;;6.70;78.10;;;;;;4977026;28;20972;-82
2020/12/14 10:28:36;;;;;;;12.70;11.10;;;6.60;77.80;;;;;;4980700;28;20497;-82
2020/12/14 10:31:07;;;;;;;13.50;11.47;;;6.70;78.00;;;;;;4983920;28;20528;-84
2020/12/14 10:33:37;;;;;;;11.70;10.53;;;6.70;78.00;;;;;;4985927;28;20497;-83
2020/12/14 10:36:08;;;;;;;12.10;11.00;;;6.90;77.90;;;;;;4988749;28;20547;-83
2020/12/14 10:38:36;;;;;;;12.13;11.00;;;6.90;77.40;;;;;;4988168;28;20452;-82
2020/12/14 10:41:03;;;;;;;12.40;11.20;;;7.10;77.50;;;;;;4988392;28;20970;-83
2020/12/14 10:43:30;;;;;;;11.50;10.40;;;7.20;77.20;;;;;;4989481;28;20456;-82
2020/12/14 10:45:58;;;;;;;11.30;10.23;;;7.00;76.60;;;;;;4988996;28;20468;-83
2020/12/14 10:48:25;;;;;;;11.57;10.47;;;7.00;76.50;;;;;;4991097;28;20570;-85
2020/12/14 10:50:51;;;;;;;12.07;10.87;;;6.90;76.60;;;;;;4998259;28;20527;-86
2020/12/14 10:53:20;;;;;;;10.70;9.70;;;6.90;76.30;;;;;;4988094;28;20524;-84
2020/12/14 10:55:46;;;;;;;10.87;9.87;;;7.00;76.20;;;;;;4986821;28;20441;-82
2020/12/14 10:58:13;;;;;;;11.10;10.10;;;6.90;75.80;;;;;;4982470;28;20454;-84
2020/12/14 11:00:40;;;;;;;11.33;10.30;;;6.90;76.10;;;;;;4981917;28;20462;-85
2020/12/14 11:03:09;;;;;;;11.67;10.53;;;6.90;76.20;;;;;;4979794;28;20457;-84
2020/12/14 11:05:36;;;;;;;12.40;11.20;;;7.00;76.20;;;;;;4976707;28;20940;-83
2020/12/14 11:08:03;;;;;;;11.70;10.60;;;7.10;75.80;;;;;;4986219;28;20463;-82
2020/12/14 11:10:31;;;;;;;10.67;9.67;;;7.10;76.10;;;;;;4990422;28;20452;-83
2020/12/14 11:12:58;;;;;;;11.00;10.00;;;7.40;75.60;;;;;;4983123;28;20469;-84
2020/12/14 11:15:25;;;;;;;10.27;9.43;;;7.30;75.40;;;;;;4990190;28;20503;-85
2020/12/14 11:17:55;;;;;;;10.87;9.87;;;7.30;75.00;;;;;;4984771;28;21267;-82
2020/12/14 11:20:22;;;;;;;13.37;10.13;;;7.30;75.10;;;;;;4980614;28;20469;-81
2020/12/14 11:22:49;;;;;;;10.20;9.30;;;7.20;75.00;;;;;;4981960;28;20445;-82
2020/12/14 11:25:17;;;;;;;13.43;10.07;;;7.20;75.10;;;;;;4974872;28;20499;-82
2020/12/14 11:27:51;;;;;;;10.03;9.13;;;7.20;75.20;;;;;;4998911;28;20488;-86
2020/12/14 11:30:18;;;;;;;13.67;10.37;;;7.30;74.90;;;;;;4975984;28;20484;-84
2020/12/14 11:32:45;;;;;;;12.87;11.07;;;7.10;74.70;;;;;;4983776;28;20472;-80
2020/12/14 11:35:13;;;;;;;11.03;9.93;;;7.30;75.10;;;;;;4978309;28;20485;-83
2020/12/14 11:37:40;;;;;;;10.67;9.67;;;7.40;75.10;;;;;;4986164;28;20460;-81
2020/12/14 11:40:07;;;;;;;18.07;10.40;;;7.50;74.70;;;;;;4991457;28;20468;-84
2020/12/14 11:42:33;;;;;;;11.30;10.20;;;7.40;74.70;;;;;;4988424;28;20437;-84
2020/12/14 11:45:01;;;;;;;16.73;9.30;;;7.30;74.50;;;;;;4987636;28;20449;-83
2020/12/14 11:47:28;;;;;;;10.40;9.07;;;7.30;74.60;;;;;;4985619;28;20482;-81
2020/12/14 11:49:54;;;;;;;9.93;9.03;;;7.30;74.90;;;;;;4980631;28;20476;-82
2020/12/14 11:52:21;;;;;;;9.70;8.90;;;7.20;74.80;;;;;;4986986;28;20771;-81
2020/12/14 11:54:47;;;;;;;10.30;9.40;;;7.00;74.60;;;;;;4972286;28;20525;-77
2020/12/14 11:57:14;;;;;;;10.53;9.23;;;7.10;74.90;;;;;;4972487;28;20460;-77
2020/12/14 11:59:40;;;;;;;9.77;8.97;;;7.20;75.10;;;;;;4970862;28;20445;-79
2020/12/14 12:02:08;;;;;;;10.83;9.63;;;7.30;74.80;;;;;;4978664;28;20480;-79
2020/12/14 12:04:35;;;;;;;11.63;9.97;;;7.10;74.60;;;;;;4961343;28;20835;-78
2020/12/14 12:07:04;;;;;;;10.40;9.43;;;7.10;74.90;;;;;;4980585;28;20520;-79
2020/12/14 12:09:32;;;;;;;14.57;9.73;;;7.00;74.50;;;;;;4976795;28;20462;-78
2020/12/14 12:12:02;;;;;;;11.60;10.53;;;7.00;74.60;;;;;;4975582;28;20476;-78
2020/12/14 12:14:30;;;;;;;9.83;8.83;;;6.90;74.50;;;;;;4968384;28;20445;-78
2020/12/14 12:16:57;;;;;;;13.27;9.70;;;6.80;74.60;;;;;;4983739;28;20467;-77
2020/12/14 12:19:24;;;;;;;14.33;10.60;;;6.80;74.70;;;;;;4992817;28;20463;-78
2020/12/14 12:21:51;;;;;;;10.33;9.33;;;6.80;74.80;;;;;;4984285;28;20453;-82
2020/12/14 12:24:21;;;;;;;10.63;9.57;;;7.00;75.30;;;;;;5006648;28;20509;-82
2020/12/14 12:26:51;;;;;;;9.97;9.07;;;7.00;74.80;;;;;;4988886;28;20452;-88
2020/12/14 12:29:21;;;;;;;10.00;9.10;;;6.90;74.70;;;;;;4997076;28;20468;-84
2020/12/14 12:31:59;;;;;;;11.50;9.50;;;6.70;74.90;;;;;;4999972;28;20469;-84
2020/12/14 12:34:27;;;;;;;24.77;10.23;;;6.60;75.00;;;;;;5005814;28;20495;-85
2020/12/14 12:36:58;;;;;;;10.53;9.50;;;6.50;75.40;;;;;;4995798;28;20470;-84
2020/12/14 12:39:25;;;;;;;10.53;9.60;;;6.60;75.50;;;;;;5001494;28;20460;-85
2020/12/14 12:41:53;;;;;;;10.03;9.13;;;6.60;75.30;;;;;;4994901;28;20445;-83
2020/12/14 12:44:24;;;;;;;10.57;9.43;;;6.60;75.60;;;;;;4997256;28;20509;-84